sensor_id;sensor_type;location;lat;lon;timestamp;temperature;humidity
22578;DHT22;11455;52.390;13.028;2023-02-28T00:00:22;3.60;1.00
22578;DHT22;11455;52.390;13.028;2023-02-28T00:02:48;3.60;1.00
22578;DHT22;11455;52.390;13.028;2023-02-28T00:05:16;3.60;1.00
22578;DHT22;11455;52.390;13.028;2023-02-28T00:07:41;3.60;1.00
22578;DHT22;11455;52.390;13.028;2023-02-28T00:10:08;3.60;1.00
22578;DHT22;11455;52.390;13.028;2023-02-28T00:12:36;3.70;1.00
22578;DHT22;11455;52.390;13.028;2023-02-28T00:15:05;3.80;1.00
22578;DHT22;11455;52.390;13.028;2023-02-28T00:17:31;3.90;1.00
22578;DHT22;11455;52.390;13.028;2023-02-28T00:19:57;3.90;1.00
22578;DHT22;11455;52.390;13.028;2023-02-28T00:22:30;3.90;1.00
22578;DHT22;11455;52.390;13.028;2023-02-28T00:24:55;3.90;1.00
22578;DHT22;11455;52.390;13.028;2023-02-28T00:27:21;3.90;1.00
22578;DHT22;11455;52.390;13.028;2023-02-28T00:29:47;3.80;1.00
22578;DHT22;11455;52.390;13.028;2023-02-28T00:32:14;3.80;1.00
22578;DHT22;11455;52.390;13.028;2023-02-28T00:34:40;3.70;1.00
22578;DHT22;11455;52.390;13.028;2023-02-28T00:37:08;3.70;1.00
22578;DHT22;11455;52.390;13.028;2023-02-28T00:39:34;3.80;1.00
22578;DHT22;11455;52.390;13.028;2023-02-28T00:42:03;3.80;1.00
22578;DHT22;11455;52.390;13.028;2023-02-28T00:44:29;3.80;1.00
22578;DHT22;11455;52.390;13.028;2023-02-28T00:46:55;3.90;1.00
22578;DHT22;11455;52.390;13.028;2023-02-28T00:49:24;3.90;1.00
22578;DHT22;11455;52.390;13.028;2023-02-28T00:51:49;3.80;1.00
22578;DHT22;11455;52.390;13.028;2023-02-28T00:54:15;3.80;1.00
22578;DHT22;11455;52.390;13.028;2023-02-28T00:56:41;3.80;1.00
22578;DHT22;11455;52.390;13.028;2023-02-28T00:59:07;3.80;1.00
22578;DHT22;11455;52.390;13.028;2023-02-28T01:01:32;3.80;1.00
22578;DHT22;11455;52.390;13.028;2023-02-28T01:03:58;3.80;1.00
22578;DHT22;11455;52.390;13.028;2023-02-28T01:06:24;3.80;1.00
22578;DHT22;11455;52.390;13.028;2023-02-28T01:08:49;3.80;1.00
22578;DHT22;11455;52.390;13.028;2023-02-28T01:11:16;3.80;1.00
22578;DHT22;11455;52.390;13.028;2023-02-28T01:13:42;3.80;1.00
22578;DHT22;11455;52.390;13.028;2023-02-28T01:16:08;3.80;1.00
22578;DHT22;11455;52.390;13.028;2023-02-28T01:18:34;3.80;1.00
22578;DHT22;11455;52.390;13.028;2023-02-28T01:21:08;3.90;1.00
22578;DHT22;11455;52.390;13.028;2023-02-28T01:23:34;3.90;1.00
22578;DHT22;11455;52.390;13.028;2023-02-28T01:26:09;4.00;1.00
22578;DHT22;11455;52.390;13.028;2023-02-28T01:28:38;4.10;1.00
22578;DHT22;11455;52.390;13.028;2023-02-28T01:31:04;4.20;1.00
22578;DHT22;11455;52.390;13.028;2023-02-28T01:33:30;4.20;1.00
22578;DHT22;11455;52.390;13.028;2023-02-28T01:36:06;4.20;1.00
22578;DHT22;11455;52.390;13.028;2023-02-28T01:38:34;4.20;1.00
22578;DHT22;11455;52.390;13.028;2023-02-28T01:41:00;4.30;1.00
22578;DHT22;11455;52.390;13.028;2023-02-28T01:43:31;4.40;1.00
22578;DHT22;11455;52.390;13.028;2023-02-28T01:45:58;4.40;1.00
22578;DHT22;11455;52.390;13.028;2023-02-28T01:48:25;4.30;1.00
22578;DHT22;11455;52.390;13.028;2023-02-28T01:50:51;4.20;1.00
22578;DHT22;11455;52.390;13.028;2023-02-28T01:53:20;4.20;1.00
22578;DHT22;11455;52.390;13.028;2023-02-28T01:55:48;4.20;1.00
22578;DHT22;11455;52.390;13.028;2023-02-28T01:58:16;4.20;1.00
22578;DHT22;11455;52.390;13.028;2023-02-28T02:00:44;4.30;1.00
22578;DHT22;11455;52.390;13.028;2023-02-28T02:03:10;4.30;1.00
22578;DHT22;11455;52.390;13.028;2023-02-28T02:05:41;4.30;1.00
22578;DHT22;11455;52.390;13.028;2023-02-28T02:08:11;4.20;1.00
22578;DHT22;11455;52.390;13.028;2023-02-28T02:10:42;4.20;1.00
22578;DHT22;11455;52.390;13.028;2023-02-28T02:13:15;4.30;1.00
22578;DHT22;11455;52.390;13.028;2023-02-28T02:18:27;4.30;1.00
22578;DHT22;11455;52.390;13.028;2023-02-28T02:34:03;4.30;1.00
22578;DHT22;11455;52.390;13.028;2023-02-28T02:36:38;4.30;1.00
22578;DHT22;11455;52.390;13.028;2023-02-28T02:39:07;4.20;1.00
22578;DHT22;11455;52.390;13.028;2023-02-28T02:44:12;4.20;1.00
22578;DHT22;11455;52.390;13.028;2023-02-28T02:46:42;4.20;1.00
22578;DHT22;11455;52.390;13.028;2023-02-28T02:49:09;4.20;1.00
22578;DHT22;11455;52.390;13.028;2023-02-28T02:51:37;4.20;1.00
22578;DHT22;11455;52.390;13.028;2023-02-28T02:54:14;4.30;1.00
22578;DHT22;11455;52.390;13.028;2023-02-28T02:56:42;4.40;1.00
22578;DHT22;11455;52.390;13.028;2023-02-28T02:59:09;4.40;1.00
22578;DHT22;11455;52.390;13.028;2023-02-28T03:01:36;4.30;1.00
22578;DHT22;11455;52.390;13.028;2023-02-28T03:04:04;4.30;1.00
22578;DHT22;11455;52.390;13.028;2023-02-28T03:06:31;4.30;1.00
22578;DHT22;11455;52.390;13.028;2023-02-28T03:08:56;4.30;1.00
22578;DHT22;11455;52.390;13.028;2023-02-28T03:11:25;4.30;1.00
22578;DHT22;11455;52.390;13.028;2023-02-28T03:24:08;4.10;1.00
22578;DHT22;11455;52.390;13.028;2023-02-28T03:26:37;4.20;1.00
22578;DHT22;11455;52.390;13.028;2023-02-28T03:29:19;4.20;1.00
22578;DHT22;11455;52.390;13.028;2023-02-28T03:31:53;4.10;1.00
22578;DHT22;11455;52.390;13.028;2023-02-28T03:34:24;3.90;1.00
22578;DHT22;11455;52.390;13.028;2023-02-28T03:36:53;3.80;1.00
22578;DHT22;11455;52.390;13.028;2023-02-28T03:39:22;3.80;1.00
22578;DHT22;11455;52.390;13.028;2023-02-28T03:44:43;3.70;1.00
22578;DHT22;11455;52.390;13.028;2023-02-28T03:49:36;3.70;1.00
22578;DHT22;11455;52.390;13.028;2023-02-28T03:52:06;3.70;1.00
22578;DHT22;11455;52.390;13.028;2023-02-28T03:54:33;3.60;1.00
22578;DHT22;11455;52.390;13.028;2023-02-28T03:59:57;3.70;1.00
22578;DHT22;11455;52.390;13.028;2023-02-28T04:02:25;3.70;1.00
22578;DHT22;11455;52.390;13.028;2023-02-28T04:04:50;3.50;1.00
22578;DHT22;11455;52.390;13.028;2023-02-28T04:07:29;3.50;1.00
22578;DHT22;11455;52.390;13.028;2023-02-28T04:09:55;3.50;1.00
22578;DHT22;11455;52.390;13.028;2023-02-28T04:12:21;3.50;1.00
22578;DHT22;11455;52.390;13.028;2023-02-28T04:14:48;3.40;1.00
22578;DHT22;11455;52.390;13.028;2023-02-28T04:17:15;3.20;1.00
22578;DHT22;11455;52.390;13.028;2023-02-28T04:19:40;3.20;1.00
22578;DHT22;11455;52.390;13.028;2023-02-28T04:22:08;3.10;1.00
22578;DHT22;11455;52.390;13.028;2023-02-28T04:24:33;3.00;7.30
22578;DHT22;11455;52.390;13.028;2023-02-28T04:26:59;3.00;14.30
22578;DHT22;11455;52.390;13.028;2023-02-28T04:29:26;3.00;17.00
22578;DHT22;11455;52.390;13.028;2023-02-28T04:31:52;2.90;17.50
22578;DHT22;11455;52.390;13.028;2023-02-28T04:34:18;3.00;12.60
22578;DHT22;11455;52.390;13.028;2023-02-28T04:36:45;3.00;10.90
22578;DHT22;11455;52.390;13.028;2023-02-28T04:39:11;3.10;8.10
22578;DHT22;11455;52.390;13.028;2023-02-28T04:41:37;3.10;1.00
22578;DHT22;11455;52.390;13.028;2023-02-28T04:44:04;3.10;1.00
22578;DHT22;11455;52.390;13.028;2023-02-28T04:46:29;3.10;1.00
22578;DHT22;11455;52.390;13.028;2023-02-28T04:48:56;3.10;3.70
22578;DHT22;11455;52.390;13.028;2023-02-28T04:51:22;3.10;6.40
22578;DHT22;11455;52.390;13.028;2023-02-28T04:53:47;3.10;3.20
22578;DHT22;11455;52.390;13.028;2023-02-28T04:56:14;3.00;1.00
22578;DHT22;11455;52.390;13.028;2023-02-28T04:58:40;3.00;2.00
22578;DHT22;11455;52.390;13.028;2023-02-28T05:01:14;3.00;1.10
22578;DHT22;11455;52.390;13.028;2023-02-28T05:03:41;2.90;5.20
22578;DHT22;11455;52.390;13.028;2023-02-28T05:06:10;2.90;2.40
22578;DHT22;11455;52.390;13.028;2023-02-28T05:08:39;2.90;6.20
22578;DHT22;11455;52.390;13.028;2023-02-28T05:11:38;2.80;9.50
22578;DHT22;11455;52.390;13.028;2023-02-28T05:14:03;2.80;12.00
22578;DHT22;11455;52.390;13.028;2023-02-28T05:16:30;2.80;22.30
22578;DHT22;11455;52.390;13.028;2023-02-28T05:18:55;2.80;14.90
22578;DHT22;11455;52.390;13.028;2023-02-28T05:21:28;2.80;14.30
22578;DHT22;11455;52.390;13.028;2023-02-28T05:23:56;2.90;10.00
22578;DHT22;11455;52.390;13.028;2023-02-28T05:26:22;2.90;4.90
22578;DHT22;11455;52.390;13.028;2023-02-28T05:28:48;2.80;16.20
22578;DHT22;11455;52.390;13.028;2023-02-28T05:31:14;2.80;12.50
22578;DHT22;11455;52.390;13.028;2023-02-28T05:33:40;2.80;8.00
22578;DHT22;11455;52.390;13.028;2023-02-28T05:36:06;2.90;1.00
22578;DHT22;11455;52.390;13.028;2023-02-28T05:38:32;2.90;1.00
22578;DHT22;11455;52.390;13.028;2023-02-28T05:41:00;2.80;1.00
22578;DHT22;11455;52.390;13.028;2023-02-28T05:43:25;2.80;1.00
22578;DHT22;11455;52.390;13.028;2023-02-28T05:45:51;2.70;1.00
22578;DHT22;11455;52.390;13.028;2023-02-28T05:48:17;2.70;1.00
22578;DHT22;11455;52.390;13.028;2023-02-28T05:50:43;2.70;1.00
22578;DHT22;11455;52.390;13.028;2023-02-28T05:53:11;2.70;1.00
22578;DHT22;11455;52.390;13.028;2023-02-28T05:55:37;2.70;1.00
22578;DHT22;11455;52.390;13.028;2023-02-28T05:58:03;2.60;1.00
22578;DHT22;11455;52.390;13.028;2023-02-28T06:00:28;2.50;3.80
22578;DHT22;11455;52.390;13.028;2023-02-28T06:02:54;2.40;9.30
22578;DHT22;11455;52.390;13.028;2023-02-28T06:05:23;2.50;16.50
22578;DHT22;11455;52.390;13.028;2023-02-28T06:07:49;2.40;16.90
22578;DHT22;11455;52.390;13.028;2023-02-28T06:10:15;2.40;20.70
22578;DHT22;11455;52.390;13.028;2023-02-28T06:12:41;2.30;24.60
22578;DHT22;11455;52.390;13.028;2023-02-28T06:15:07;2.40;31.20
22578;DHT22;11455;52.390;13.028;2023-02-28T06:17:33;2.40;20.70
22578;DHT22;11455;52.390;13.028;2023-02-28T06:19:59;2.40;26.00
22578;DHT22;11455;52.390;13.028;2023-02-28T06:22:27;2.40;13.10
22578;DHT22;11455;52.390;13.028;2023-02-28T06:24:53;2.40;1.00
22578;DHT22;11455;52.390;13.028;2023-02-28T06:27:20;2.30;1.90
22578;DHT22;11455;52.390;13.028;2023-02-28T06:29:45;2.20;10.00
22578;DHT22;11455;52.390;13.028;2023-02-28T06:32:11;2.20;17.70
22578;DHT22;11455;52.390;13.028;2023-02-28T06:34:37;2.20;25.50
22578;DHT22;11455;52.390;13.028;2023-02-28T06:37:05;2.20;25.10
22578;DHT22;11455;52.390;13.028;2023-02-28T06:39:31;2.20;28.70
22578;DHT22;11455;52.390;13.028;2023-02-28T06:41:57;2.20;29.70
22578;DHT22;11455;52.390;13.028;2023-02-28T06:44:22;2.20;35.70
22578;DHT22;11455;52.390;13.028;2023-02-28T06:46:48;2.20;47.70
22578;DHT22;11455;52.390;13.028;2023-02-28T06:49:14;2.20;40.90
22578;DHT22;11455;52.390;13.028;2023-02-28T06:51:41;2.20;51.30
22578;DHT22;11455;52.390;13.028;2023-02-28T06:54:09;2.20;43.20
22578;DHT22;11455;52.390;13.028;2023-02-28T06:56:35;2.30;52.10
22578;DHT22;11455;52.390;13.028;2023-02-28T06:59:00;2.30;48.20
22578;DHT22;11455;52.390;13.028;2023-02-28T07:01:26;2.30;49.30
22578;DHT22;11455;52.390;13.028;2023-02-28T07:03:53;2.40;70.10
22578;DHT22;11455;52.390;13.028;2023-02-28T07:06:20;2.50;92.60
22578;DHT22;11455;52.390;13.028;2023-02-28T07:08:48;2.60;39.30
22578;DHT22;11455;52.390;13.028;2023-02-28T07:11:14;2.60;30.30
22578;DHT22;11455;52.390;13.028;2023-02-28T07:13:39;2.70;44.60
22578;DHT22;11455;52.390;13.028;2023-02-28T07:16:06;2.70;39.00
22578;DHT22;11455;52.390;13.028;2023-02-28T07:18:34;2.70;42.70
22578;DHT22;11455;52.390;13.028;2023-02-28T07:21:03;2.70;41.50
22578;DHT22;11455;52.390;13.028;2023-02-28T07:23:29;2.70;38.00
22578;DHT22;11455;52.390;13.028;2023-02-28T07:25:55;2.80;36.60
22578;DHT22;11455;52.390;13.028;2023-02-28T07:28:21;2.80;41.30
22578;DHT22;11455;52.390;13.028;2023-02-28T07:30:46;2.90;36.10
22578;DHT22;11455;52.390;13.028;2023-02-28T07:33:15;2.90;28.40
22578;DHT22;11455;52.390;13.028;2023-02-28T07:35:41;2.90;26.60
22578;DHT22;11455;52.390;13.028;2023-02-28T07:38:07;3.00;20.40
22578;DHT22;11455;52.390;13.028;2023-02-28T07:40:33;3.00;22.00
22578;DHT22;11455;52.390;13.028;2023-02-28T07:42:59;3.10;30.70
22578;DHT22;11455;52.390;13.028;2023-02-28T07:45:25;3.10;19.50
22578;DHT22;11455;52.390;13.028;2023-02-28T07:47:50;3.20;10.10
22578;DHT22;11455;52.390;13.028;2023-02-28T07:50:16;3.20;1.00
22578;DHT22;11455;52.390;13.028;2023-02-28T07:52:44;3.30;1.00
22578;DHT22;11455;52.390;13.028;2023-02-28T07:55:10;3.40;1.00
22578;DHT22;11455;52.390;13.028;2023-02-28T07:57:36;3.40;1.00
22578;DHT22;11455;52.390;13.028;2023-02-28T08:00:05;3.50;1.00
22578;DHT22;11455;52.390;13.028;2023-02-28T08:02:36;3.50;1.00
22578;DHT22;11455;52.390;13.028;2023-02-28T08:05:02;3.60;1.00
22578;DHT22;11455;52.390;13.028;2023-02-28T08:07:28;3.70;1.00
22578;DHT22;11455;52.390;13.028;2023-02-28T08:09:54;3.80;1.00
22578;DHT22;11455;52.390;13.028;2023-02-28T08:12:19;3.80;1.00
22578;DHT22;11455;52.390;13.028;2023-02-28T08:14:45;4.00;1.00
22578;DHT22;11455;52.390;13.028;2023-02-28T08:17:13;4.20;1.00
22578;DHT22;11455;52.390;13.028;2023-02-28T08:19:39;4.40;1.00
22578;DHT22;11455;52.390;13.028;2023-02-28T08:22:04;4.50;1.00
22578;DHT22;11455;52.390;13.028;2023-02-28T08:24:30;4.60;1.00
22578;DHT22;11455;52.390;13.028;2023-02-28T08:26:55;4.60;1.00
22578;DHT22;11455;52.390;13.028;2023-02-28T08:29:21;4.70;1.00
22578;DHT22;11455;52.390;13.028;2023-02-28T08:31:47;4.70;1.00
22578;DHT22;11455;52.390;13.028;2023-02-28T08:34:15;4.80;1.00
22578;DHT22;11455;52.390;13.028;2023-02-28T08:36:41;4.70;1.00
22578;DHT22;11455;52.390;13.028;2023-02-28T08:39:09;4.70;1.00
22578;DHT22;11455;52.390;13.028;2023-02-28T08:41:35;4.70;1.00
22578;DHT22;11455;52.390;13.028;2023-02-28T08:44:01;4.70;1.00
22578;DHT22;11455;52.390;13.028;2023-02-28T08:46:27;4.70;1.00
22578;DHT22;11455;52.390;13.028;2023-02-28T08:48:56;4.80;1.00
22578;DHT22;11455;52.390;13.028;2023-02-28T08:51:25;4.90;1.00
22578;DHT22;11455;52.390;13.028;2023-02-28T08:53:54;5.00;1.00
22578;DHT22;11455;52.390;13.028;2023-02-28T08:56:20;5.00;1.00
22578;DHT22;11455;52.390;13.028;2023-02-28T08:58:47;5.10;1.00
22578;DHT22;11455;52.390;13.028;2023-02-28T09:01:14;5.20;1.00
22578;DHT22;11455;52.390;13.028;2023-02-28T09:03:40;5.20;1.00
22578;DHT22;11455;52.390;13.028;2023-02-28T09:06:07;5.30;1.00
22578;DHT22;11455;52.390;13.028;2023-02-28T09:08:33;5.30;1.00
22578;DHT22;11455;52.390;13.028;2023-02-28T09:10:58;5.40;1.00
22578;DHT22;11455;52.390;13.028;2023-02-28T09:13:25;5.40;1.00
22578;DHT22;11455;52.390;13.028;2023-02-28T09:15:51;5.40;1.00
22578;DHT22;11455;52.390;13.028;2023-02-28T09:18:17;5.40;1.00
22578;DHT22;11455;52.390;13.028;2023-02-28T09:20:42;5.40;1.00
22578;DHT22;11455;52.390;13.028;2023-02-28T09:23:09;5.40;1.00
22578;DHT22;11455;52.390;13.028;2023-02-28T09:25:35;5.50;1.00
22578;DHT22;11455;52.390;13.028;2023-02-28T09:28:00;5.50;1.00
22578;DHT22;11455;52.390;13.028;2023-02-28T09:30:26;5.60;1.00
22578;DHT22;11455;52.390;13.028;2023-02-28T09:32:52;5.60;1.00
22578;DHT22;11455;52.390;13.028;2023-02-28T09:35:19;5.70;1.00
22578;DHT22;11455;52.390;13.028;2023-02-28T09:37:46;5.70;1.00
22578;DHT22;11455;52.390;13.028;2023-02-28T09:40:12;5.80;1.00
22578;DHT22;11455;52.390;13.028;2023-02-28T09:42:40;5.80;1.00
22578;DHT22;11455;52.390;13.028;2023-02-28T09:45:06;5.80;1.00
22578;DHT22;11455;52.390;13.028;2023-02-28T09:47:36;5.80;1.00
22578;DHT22;11455;52.390;13.028;2023-02-28T09:50:37;5.80;1.00
22578;DHT22;11455;52.390;13.028;2023-02-28T09:52:55;5.90;1.00
22578;DHT22;11455;52.390;13.028;2023-02-28T09:57:50;6.00;1.00
22578;DHT22;11455;52.390;13.028;2023-02-28T10:00:51;6.10;1.00
22578;DHT22;11455;52.390;13.028;2023-02-28T10:11:23;6.10;1.00
22578;DHT22;11455;52.390;13.028;2023-02-28T10:16:38;6.00;1.00
22578;DHT22;11455;52.390;13.028;2023-02-28T10:21:31;6.20;1.00
22578;DHT22;11455;52.390;13.028;2023-02-28T10:24:03;6.20;1.00
22578;DHT22;11455;52.390;13.028;2023-02-28T10:26:29;6.30;1.00
22578;DHT22;11455;52.390;13.028;2023-02-28T10:28:56;6.30;1.00
22578;DHT22;11455;52.390;13.028;2023-02-28T10:31:22;6.30;1.00
22578;DHT22;11455;52.390;13.028;2023-02-28T10:33:48;6.20;1.00
22578;DHT22;11455;52.390;13.028;2023-02-28T10:36:15;6.20;1.00
22578;DHT22;11455;52.390;13.028;2023-02-28T10:38:42;6.00;1.00
22578;DHT22;11455;52.390;13.028;2023-02-28T10:41:09;6.00;1.00
22578;DHT22;11455;52.390;13.028;2023-02-28T10:43:36;6.10;1.00
22578;DHT22;11455;52.390;13.028;2023-02-28T10:48:29;6.30;1.00
22578;DHT22;11455;52.390;13.028;2023-02-28T10:50:55;6.40;1.00
22578;DHT22;11455;52.390;13.028;2023-02-28T10:58:24;6.50;1.00
22578;DHT22;11455;52.390;13.028;2023-02-28T11:00:52;6.60;1.00
22578;DHT22;11455;52.390;13.028;2023-02-28T11:03:28;6.50;1.00
22578;DHT22;11455;52.390;13.028;2023-02-28T11:05:54;6.50;1.00
22578;DHT22;11455;52.390;13.028;2023-02-28T11:08:20;6.60;1.00
22578;DHT22;11455;52.390;13.028;2023-02-28T11:10:46;6.70;1.00
22578;DHT22;11455;52.390;13.028;2023-02-28T11:13:19;6.80;1.00
22578;DHT22;11455;52.390;13.028;2023-02-28T11:15:52;6.80;1.00
22578;DHT22;11455;52.390;13.028;2023-02-28T11:18:35;6.70;1.00
22578;DHT22;11455;52.390;13.028;2023-02-28T11:21:03;6.70;1.00
22578;DHT22;11455;52.390;13.028;2023-02-28T11:23:30;6.80;1.00
22578;DHT22;11455;52.390;13.028;2023-02-28T11:25:59;6.80;1.00
22578;DHT22;11455;52.390;13.028;2023-02-28T11:31:01;6.90;1.00
22578;DHT22;11455;52.390;13.028;2023-02-28T11:35:53;7.00;1.00
22578;DHT22;11455;52.390;13.028;2023-02-28T11:38:20;7.10;1.00
22578;DHT22;11455;52.390;13.028;2023-02-28T11:45:59;7.10;1.00
22578;DHT22;11455;52.390;13.028;2023-02-28T11:53:35;7.20;1.00
22578;DHT22;11455;52.390;13.028;2023-02-28T11:56:09;7.30;1.00
22578;DHT22;11455;52.390;13.028;2023-02-28T11:58:54;7.40;1.00
22578;DHT22;11455;52.390;13.028;2023-02-28T12:03:58;7.50;1.00
22578;DHT22;11455;52.390;13.028;2023-02-28T12:09:02;7.70;1.00
22578;DHT22;11455;52.390;13.028;2023-02-28T12:16:36;7.70;1.00
22578;DHT22;11455;52.390;13.028;2023-02-28T12:19:06;7.80;1.00
22578;DHT22;11455;52.390;13.028;2023-02-28T12:24:32;8.10;1.00
22578;DHT22;11455;52.390;13.028;2023-02-28T12:27:05;8.20;1.00
22578;DHT22;11455;52.390;13.028;2023-02-28T12:29:35;8.20;1.00
22578;DHT22;11455;52.390;13.028;2023-02-28T12:32:09;8.40;1.00
22578;DHT22;11455;52.390;13.028;2023-02-28T12:34:42;8.50;1.00
22578;DHT22;11455;52.390;13.028;2023-02-28T12:37:19;8.70;1.00
22578;DHT22;11455;52.390;13.028;2023-02-28T12:39:49;8.90;1.00
22578;DHT22;11455;52.390;13.028;2023-02-28T12:42:28;8.90;1.00
22578;DHT22;11455;52.390;13.028;2023-02-28T12:45:05;9.00;1.00
22578;DHT22;11455;52.390;13.028;2023-02-28T12:47:34;9.10;1.00
22578;DHT22;11455;52.390;13.028;2023-02-28T12:50:04;9.20;1.00
22578;DHT22;11455;52.390;13.028;2023-02-28T12:58:13;9.30;1.00
22578;DHT22;11455;52.390;13.028;2023-02-28T13:00:38;9.40;1.00
22578;DHT22;11455;52.390;13.028;2023-02-28T13:10:45;9.70;1.00
22578;DHT22;11455;52.390;13.028;2023-02-28T13:13:15;9.60;1.00
22578;DHT22;11455;52.390;13.028;2023-02-28T13:18:30;9.80;1.00
22578;DHT22;11455;52.390;13.028;2023-02-28T13:20:56;9.70;1.00
22578;DHT22;11455;52.390;13.028;2023-02-28T13:26:06;10.00;1.00
22578;DHT22;11455;52.390;13.028;2023-02-28T13:31:16;10.30;1.00
22578;DHT22;11455;52.390;13.028;2023-02-28T13:38:41;10.40;1.00
22578;DHT22;11455;52.390;13.028;2023-02-28T13:46:37;10.60;1.00
22578;DHT22;11455;52.390;13.028;2023-02-28T14:05:05;10.90;1.00
22578;DHT22;11455;52.390;13.028;2023-02-28T14:07:43;11.00;1.00
22578;DHT22;11455;52.390;13.028;2023-02-28T14:10:15;11.20;1.00
22578;DHT22;11455;52.390;13.028;2023-02-28T14:15:34;11.30;1.00
22578;DHT22;11455;52.390;13.028;2023-02-28T14:20:39;11.20;1.00
22578;DHT22;11455;52.390;13.028;2023-02-28T14:25:55;11.30;1.00
22578;DHT22;11455;52.390;13.028;2023-02-28T14:31:13;10.90;1.00
22578;DHT22;11455;52.390;13.028;2023-02-28T14:33:54;10.90;1.00
22578;DHT22;11455;52.390;13.028;2023-02-28T14:36:34;10.60;1.00
22578;DHT22;11455;52.390;13.028;2023-02-28T14:39:03;10.80;1.00
22578;DHT22;11455;52.390;13.028;2023-02-28T14:41:31;10.90;1.00
22578;DHT22;11455;52.390;13.028;2023-02-28T14:43:58;11.10;1.00
22578;DHT22;11455;52.390;13.028;2023-02-28T14:46:28;11.20;1.00
22578;DHT22;11455;52.390;13.028;2023-02-28T14:48:55;11.40;1.00
22578;DHT22;11455;52.390;13.028;2023-02-28T14:51:21;11.30;1.00
22578;DHT22;11455;52.390;13.028;2023-02-28T14:53:52;11.30;1.00
22578;DHT22;11455;52.390;13.028;2023-02-28T14:56:34;11.20;1.00
22578;DHT22;11455;52.390;13.028;2023-02-28T14:58:59;11.00;1.00
22578;DHT22;11455;52.390;13.028;2023-02-28T15:01:25;10.90;1.00
22578;DHT22;11455;52.390;13.028;2023-02-28T15:04:02;10.50;1.00
22578;DHT22;11455;52.390;13.028;2023-02-28T15:06:28;10.30;1.00
22578;DHT22;11455;52.390;13.028;2023-02-28T15:09:06;10.30;1.00
22578;DHT22;11455;52.390;13.028;2023-02-28T15:11:33;10.20;1.00
22578;DHT22;11455;52.390;13.028;2023-02-28T15:13:58;10.00;1.00
22578;DHT22;11455;52.390;13.028;2023-02-28T15:16:28;9.80;1.00
22578;DHT22;11455;52.390;13.028;2023-02-28T15:19:00;9.80;1.00
22578;DHT22;11455;52.390;13.028;2023-02-28T15:21:33;9.70;1.00
22578;DHT22;11455;52.390;13.028;2023-02-28T15:24:02;9.70;1.00
22578;DHT22;11455;52.390;13.028;2023-02-28T15:26:30;9.90;1.00
22578;DHT22;11455;52.390;13.028;2023-02-28T15:28:58;9.90;1.00
22578;DHT22;11455;52.390;13.028;2023-02-28T15:31:29;9.70;1.00
22578;DHT22;11455;52.390;13.028;2023-02-28T15:33:57;9.60;1.00
22578;DHT22;11455;52.390;13.028;2023-02-28T15:36:28;9.80;1.00
22578;DHT22;11455;52.390;13.028;2023-02-28T15:38:54;9.60;1.00
22578;DHT22;11455;52.390;13.028;2023-02-28T15:41:21;9.40;1.00
22578;DHT22;11455;52.390;13.028;2023-02-28T15:43:48;9.20;1.00
22578;DHT22;11455;52.390;13.028;2023-02-28T15:46:14;9.00;1.00
22578;DHT22;11455;52.390;13.028;2023-02-28T15:48:45;8.80;1.00
22578;DHT22;11455;52.390;13.028;2023-02-28T15:51:16;8.80;1.00
22578;DHT22;11455;52.390;13.028;2023-02-28T15:53:53;8.70;1.00
22578;DHT22;11455;52.390;13.028;2023-02-28T15:56:22;8.60;1.00
22578;DHT22;11455;52.390;13.028;2023-02-28T15:58:49;8.40;1.00
22578;DHT22;11455;52.390;13.028;2023-02-28T16:03:43;8.20;1.00
22578;DHT22;11455;52.390;13.028;2023-02-28T16:08:41;8.10;1.00
22578;DHT22;11455;52.390;13.028;2023-02-28T16:11:08;8.00;1.00
22578;DHT22;11455;52.390;13.028;2023-02-28T16:13:34;8.00;1.00
22578;DHT22;11455;52.390;13.028;2023-02-28T16:16:00;7.90;1.00
22578;DHT22;11455;52.390;13.028;2023-02-28T16:18:26;7.90;1.00
22578;DHT22;11455;52.390;13.028;2023-02-28T16:20:52;7.90;1.00
22578;DHT22;11455;52.390;13.028;2023-02-28T16:23:18;7.90;1.00
22578;DHT22;11455;52.390;13.028;2023-02-28T16:25:43;7.80;1.00
22578;DHT22;11455;52.390;13.028;2023-02-28T16:28:33;7.80;1.00
22578;DHT22;11455;52.390;13.028;2023-02-28T16:30:59;7.80;1.00
22578;DHT22;11455;52.390;13.028;2023-02-28T16:33:25;7.80;1.00
22578;DHT22;11455;52.390;13.028;2023-02-28T16:35:51;7.70;1.00
22578;DHT22;11455;52.390;13.028;2023-02-28T16:38:16;7.60;1.00
22578;DHT22;11455;52.390;13.028;2023-02-28T16:40:42;7.60;1.00
22578;DHT22;11455;52.390;13.028;2023-02-28T16:43:09;7.50;1.00
22578;DHT22;11455;52.390;13.028;2023-02-28T16:45:38;7.50;1.00
22578;DHT22;11455;52.390;13.028;2023-02-28T16:48:07;7.60;1.00
22578;DHT22;11455;52.390;13.028;2023-02-28T16:50:36;7.60;1.00
22578;DHT22;11455;52.390;13.028;2023-02-28T16:53:02;7.60;1.00
22578;DHT22;11455;52.390;13.028;2023-02-28T16:55:27;7.60;1.00
22578;DHT22;11455;52.390;13.028;2023-02-28T16:57:54;7.60;1.00
22578;DHT22;11455;52.390;13.028;2023-02-28T17:00:20;7.60;1.00
22578;DHT22;11455;52.390;13.028;2023-02-28T17:02:46;7.50;1.00
22578;DHT22;11455;52.390;13.028;2023-02-28T17:05:11;7.50;1.00
22578;DHT22;11455;52.390;13.028;2023-02-28T17:07:38;7.40;1.00
22578;DHT22;11455;52.390;13.028;2023-02-28T17:10:10;7.40;1.00
22578;DHT22;11455;52.390;13.028;2023-02-28T17:12:37;7.30;1.00
22578;DHT22;11455;52.390;13.028;2023-02-28T17:15:03;7.30;1.00
22578;DHT22;11455;52.390;13.028;2023-02-28T17:17:29;7.30;1.00
22578;DHT22;11455;52.390;13.028;2023-02-28T17:19:55;7.50;1.00
22578;DHT22;11455;52.390;13.028;2023-02-28T17:22:23;7.50;1.00
22578;DHT22;11455;52.390;13.028;2023-02-28T17:24:48;7.40;1.00
22578;DHT22;11455;52.390;13.028;2023-02-28T17:27:14;7.40;1.00
22578;DHT22;11455;52.390;13.028;2023-02-28T17:29:40;7.30;1.00
22578;DHT22;11455;52.390;13.028;2023-02-28T17:32:07;7.30;1.00
22578;DHT22;11455;52.390;13.028;2023-02-28T17:34:32;7.30;1.00
22578;DHT22;11455;52.390;13.028;2023-02-28T17:36:58;7.30;1.00
22578;DHT22;11455;52.390;13.028;2023-02-28T17:39:23;7.20;1.00
22578;DHT22;11455;52.390;13.028;2023-02-28T17:41:52;7.20;1.00
22578;DHT22;11455;52.390;13.028;2023-02-28T17:44:19;7.10;1.00
22578;DHT22;11455;52.390;13.028;2023-02-28T17:46:45;7.00;1.00
22578;DHT22;11455;52.390;13.028;2023-02-28T17:49:11;7.00;1.00
22578;DHT22;11455;52.390;13.028;2023-02-28T17:51:37;7.10;1.00
22578;DHT22;11455;52.390;13.028;2023-02-28T17:54:03;7.00;1.00
22578;DHT22;11455;52.390;13.028;2023-02-28T17:56:28;7.00;1.00
22578;DHT22;11455;52.390;13.028;2023-02-28T17:58:54;6.80;1.00
22578;DHT22;11455;52.390;13.028;2023-02-28T18:01:20;6.60;1.00
22578;DHT22;11455;52.390;13.028;2023-02-28T18:03:50;6.50;1.00
22578;DHT22;11455;52.390;13.028;2023-02-28T18:06:18;6.30;1.00
22578;DHT22;11455;52.390;13.028;2023-02-28T18:08:44;6.20;1.00
22578;DHT22;11455;52.390;13.028;2023-02-28T18:11:13;6.20;1.00
22578;DHT22;11455;52.390;13.028;2023-02-28T18:13:49;6.20;1.00
22578;DHT22;11455;52.390;13.028;2023-02-28T18:16:15;6.20;1.00
22578;DHT22;11455;52.390;13.028;2023-02-28T18:18:41;6.20;1.00